sensor_id;sensor_type;location;lat;lon;timestamp;pressure;altitude;pressure_sealevel;temperature;humidity
66857;BME280;53766;50.280;19.160;2022-12-07T00:01:23;97935.00;;;16.94;46.85
66857;BME280;53766;50.280;19.160;2022-12-07T00:03:53;97931.53;;;16.94;46.93
66857;BME280;53766;50.280;19.160;2022-12-07T00:06:21;97935.81;;;16.95;46.89
66857;BME280;53766;50.280;19.160;2022-12-07T00:08:49;97937.44;;;16.96;46.73
66857;BME280;53766;50.280;19.160;2022-12-07T00:11:19;97938.50;;;16.95;46.71
66857;BME280;53766;50.280;19.160;2022-12-07T00:13:51;97932.13;;;16.96;46.90
66857;BME280;53766;50.280;19.160;2022-12-07T00:16:21;97938.50;;;16.95;46.76
66857;BME280;53766;50.280;19.160;2022-12-07T00:18:49;97937.88;;;16.93;46.77
66857;BME280;53766;50.280;19.160;2022-12-07T00:21:19;97931.53;;;16.94;46.85
66857;BME280;53766;50.280;19.160;2022-12-07T00:23:48;97929.91;;;16.93;46.75
66857;BME280;53766;50.280;19.160;2022-12-07T00:26:19;97922.91;;;16.92;46.76
66857;BME280;53766;50.280;19.160;2022-12-07T00:28:48;97928.25;;;16.92;46.83
66857;BME280;53766;50.280;19.160;2022-12-07T00:31:17;97926.63;;;16.91;46.73
66857;BME280;53766;50.280;19.160;2022-12-07T00:33:46;97921.31;;;16.91;46.80
66857;BME280;53766;50.280;19.160;2022-12-07T00:36:16;97922.91;;;16.92;46.81
66857;BME280;53766;50.280;19.160;2022-12-07T00:38:52;97929.28;;;16.91;46.81
66857;BME280;53766;50.280;19.160;2022-12-07T00:41:22;97926.63;;;16.91;46.73
66857;BME280;53766;50.280;19.160;2022-12-07T00:43:50;97922.31;;;16.90;46.65
66857;BME280;53766;50.280;19.160;2022-12-07T00:46:19;97921.50;;;16.89;46.68
66857;BME280;53766;50.280;19.160;2022-12-07T00:48:48;97918.84;;;16.89;46.72
66857;BME280;53766;50.280;19.160;2022-12-07T00:51:19;97911.66;;;16.90;46.66
66857;BME280;53766;50.280;19.160;2022-12-07T00:53:47;97912.72;;;16.89;46.78
66857;BME280;53766;50.280;19.160;2022-12-07T00:56:20;97914.56;;;16.88;46.84
66857;BME280;53766;50.280;19.160;2022-12-07T00:58:57;97917.00;;;16.90;46.62
66857;BME280;53766;50.280;19.160;2022-12-07T01:01:27;97915.38;;;16.89;46.74
66857;BME280;53766;50.280;19.160;2022-12-07T01:03:55;97905.16;;;16.85;47.15
66857;BME280;53766;50.280;19.160;2022-12-07T01:06:24;97906.16;;;16.84;46.86
66857;BME280;53766;50.280;19.160;2022-12-07T01:08:52;97904.53;;;16.83;46.87
66857;BME280;53766;50.280;19.160;2022-12-07T01:11:23;97909.88;;;16.83;46.77
66857;BME280;53766;50.280;19.160;2022-12-07T01:13:52;97905.56;;;16.82;46.77
66857;BME280;53766;50.280;19.160;2022-12-07T01:16:22;97904.94;;;16.80;46.88
66857;BME280;53766;50.280;19.160;2022-12-07T01:18:52;97904.94;;;16.80;46.84
66857;BME280;53766;50.280;19.160;2022-12-07T01:21:26;97900.63;;;16.79;46.81
66857;BME280;53766;50.280;19.160;2022-12-07T01:23:54;97898.81;;;16.80;46.83
66857;BME280;53766;50.280;19.160;2022-12-07T01:26:23;97898.97;;;16.78;46.97
66857;BME280;53766;50.280;19.160;2022-12-07T01:28:52;97897.97;;;16.79;46.86
66857;BME280;53766;50.280;19.160;2022-12-07T01:31:23;97896.31;;;16.78;46.73
66857;BME280;53766;50.280;19.160;2022-12-07T01:33:54;97895.50;;;16.78;46.79
66857;BME280;53766;50.280;19.160;2022-12-07T01:36:25;97892.22;;;16.76;46.86
66857;BME280;53766;50.280;19.160;2022-12-07T01:38:58;97891.41;;;16.75;46.96
66857;BME280;53766;50.280;19.160;2022-12-07T01:41:29;97892.44;;;16.74;46.87
66857;BME280;53766;50.280;19.160;2022-12-07T01:44:13;97885.50;;;16.73;46.90
66857;BME280;53766;50.280;19.160;2022-12-07T01:46:46;97888.16;;;16.73;46.82
66857;BME280;53766;50.280;19.160;2022-12-07T01:49:18;97886.50;;;16.72;46.77
66857;BME280;53766;50.280;19.160;2022-12-07T01:51:49;97886.50;;;16.72;46.82
66857;BME280;53766;50.280;19.160;2022-12-07T01:54:19;97887.34;;;16.73;46.74
66857;BME280;53766;50.280;19.160;2022-12-07T01:56:51;97886.50;;;16.72;46.76
66857;BME280;53766;50.280;19.160;2022-12-07T01:59:22;97884.06;;;16.71;46.79
66857;BME280;53766;50.280;19.160;2022-12-07T02:01:53;97880.59;;;16.70;46.86
66857;BME280;53766;50.280;19.160;2022-12-07T02:04:22;97884.88;;;16.71;46.91
66857;BME280;53766;50.280;19.160;2022-12-07T02:06:51;97892.25;;;16.69;46.77
66857;BME280;53766;50.280;19.160;2022-12-07T02:09:19;97885.06;;;16.70;46.83
66857;BME280;53766;50.280;19.160;2022-12-07T02:11:47;97881.59;;;16.69;46.73
66857;BME280;53766;50.280;19.160;2022-12-07T02:14:15;97881.59;;;16.69;46.72
66857;BME280;53766;50.280;19.160;2022-12-07T02:16:55;97878.34;;;16.67;46.49
66857;BME280;53766;50.280;19.160;2022-12-07T02:25:33;97884.69;;;16.66;46.68
66857;BME280;53766;50.280;19.160;2022-12-07T02:28:19;97875.06;;;16.65;46.63
66857;BME280;53766;50.280;19.160;2022-12-07T02:30:55;97879.38;;;16.66;46.74
66857;BME280;53766;50.280;19.160;2022-12-07T02:33:35;97884.06;;;16.64;46.72
66857;BME280;53766;50.280;19.160;2022-12-07T02:36:08;97876.09;;;16.64;46.70
66857;BME280;53766;50.280;19.160;2022-12-07T02:39:02;97877.91;;;16.63;46.61
66857;BME280;53766;50.280;19.160;2022-12-07T02:41:47;97873.44;;;16.64;46.55
66857;BME280;53766;50.280;19.160;2022-12-07T02:44:19;97875.06;;;16.65;46.53
66857;BME280;53766;50.280;19.160;2022-12-07T02:46:52;97879.75;;;16.63;46.58
66857;BME280;53766;50.280;19.160;2022-12-07T02:49:25;97871.78;;;16.63;46.50
66857;BME280;53766;50.280;19.160;2022-12-07T02:51:53;97871.78;;;16.63;46.41
66857;BME280;53766;50.280;19.160;2022-12-07T02:54:21;97865.84;;;16.61;46.52
66857;BME280;53766;50.280;19.160;2022-12-07T02:56:55;97861.16;;;16.63;46.52
66857;BME280;53766;50.280;19.160;2022-12-07T02:59:54;97864.44;;;16.65;46.46
66857;BME280;53766;50.280;19.160;2022-12-07T03:02:33;97858.91;;;16.66;46.45
66857;BME280;53766;50.280;19.160;2022-12-07T03:08:13;97860.75;;;16.66;46.58
66857;BME280;53766;50.280;19.160;2022-12-07T03:16:27;97864.03;;;16.68;46.45
66857;BME280;53766;50.280;19.160;2022-12-07T03:18:58;97858.72;;;16.68;46.58
66857;BME280;53766;50.280;19.160;2022-12-07T03:21:31;97858.47;;;16.70;46.36
66857;BME280;53766;50.280;19.160;2022-12-07T03:24:04;97861.97;;;16.70;46.34
66857;BME280;53766;50.280;19.160;2022-12-07T03:26:37;97860.34;;;16.69;46.43
66857;BME280;53766;50.280;19.160;2022-12-07T03:29:14;97853.41;;;16.68;46.46
66857;BME280;53766;50.280;19.160;2022-12-07T03:31:49;97856.88;;;16.69;46.43
66857;BME280;53766;50.280;19.160;2022-12-07T03:34:24;97851.34;;;16.70;46.26
66857;BME280;53766;50.280;19.160;2022-12-07T03:37:04;97852.34;;;16.69;46.48
66857;BME280;53766;50.280;19.160;2022-12-07T03:39:49;97846.03;;;16.70;46.50
66857;BME280;53766;50.280;19.160;2022-12-07T03:42:21;97844.38;;;16.69;46.39
66857;BME280;53766;50.280;19.160;2022-12-07T03:44:49;97852.34;;;16.69;46.37
66857;BME280;53766;50.280;19.160;2022-12-07T03:47:33;97843.56;;;16.69;46.29
66857;BME280;53766;50.280;19.160;2022-12-07T03:52:40;97844.38;;;16.69;46.41
66857;BME280;53766;50.280;19.160;2022-12-07T03:55:24;97840.72;;;16.70;46.29
66857;BME280;53766;50.280;19.160;2022-12-07T03:57:58;97837.44;;;16.68;46.30
66857;BME280;53766;50.280;19.160;2022-12-07T04:00:26;97839.88;;;16.70;46.31
66857;BME280;53766;50.280;19.160;2022-12-07T04:02:55;97847.25;;;16.67;46.36
66857;BME280;53766;50.280;19.160;2022-12-07T04:05:23;97842.75;;;16.68;46.23
66857;BME280;53766;50.280;19.160;2022-12-07T04:07:51;97841.72;;;16.69;46.17
66857;BME280;53766;50.280;19.160;2022-12-07T04:10:19;97841.91;;;16.67;46.31
66857;BME280;53766;50.280;19.160;2022-12-07T04:12:47;97839.06;;;16.69;46.27
66857;BME280;53766;50.280;19.160;2022-12-07T04:15:14;97842.75;;;16.68;46.12
66857;BME280;53766;50.280;19.160;2022-12-07T04:17:42;97842.75;;;16.68;46.23
66857;BME280;53766;50.280;19.160;2022-12-07T04:20:09;97845.41;;;16.68;46.13
66857;BME280;53766;50.280;19.160;2022-12-07T04:22:37;97845.63;;;16.66;46.11
66857;BME280;53766;50.280;19.160;2022-12-07T04:25:05;97841.09;;;16.67;46.19
66857;BME280;53766;50.280;19.160;2022-12-07T04:27:32;97841.09;;;16.67;46.09
66857;BME280;53766;50.280;19.160;2022-12-07T04:30:00;97841.09;;;16.67;46.02
66857;BME280;53766;50.280;19.160;2022-12-07T04:32:28;97841.09;;;16.67;46.11
66857;BME280;53766;50.280;19.160;2022-12-07T04:34:55;97845.81;;;16.65;46.09
66857;BME280;53766;50.280;19.160;2022-12-07T04:37:23;97843.78;;;16.67;45.98
66857;BME280;53766;50.280;19.160;2022-12-07T04:39:51;97846.44;;;16.67;46.13
66857;BME280;53766;50.280;19.160;2022-12-07T04:42:18;97836.84;;;16.66;46.15
66857;BME280;53766;50.280;19.160;2022-12-07T04:44:46;97837.84;;;16.65;45.96
66857;BME280;53766;50.280;19.160;2022-12-07T04:47:13;97845.81;;;16.65;46.08
66857;BME280;53766;50.280;19.160;2022-12-07T04:49:41;97844.81;;;16.66;46.04
66857;BME280;53766;50.280;19.160;2022-12-07T04:52:09;97840.50;;;16.65;46.06
66857;BME280;53766;50.280;19.160;2022-12-07T04:54:37;97848.47;;;16.65;45.85
66857;BME280;53766;50.280;19.160;2022-12-07T04:57:04;97842.34;;;16.64;46.11
66857;BME280;53766;50.280;19.160;2022-12-07T04:59:33;97853.78;;;16.65;46.03
66857;BME280;53766;50.280;19.160;2022-12-07T05:02:00;97843.16;;;16.65;46.04
66857;BME280;53766;50.280;19.160;2022-12-07T05:04:28;97837.03;;;16.64;46.18
66857;BME280;53766;50.280;19.160;2022-12-07T05:06:55;97843.59;;;16.62;46.10
66857;BME280;53766;50.280;19.160;2022-12-07T05:09:23;97849.50;;;16.64;45.97
66857;BME280;53766;50.280;19.160;2022-12-07T05:11:50;97844.19;;;16.64;46.08
66857;BME280;53766;50.280;19.160;2022-12-07T05:14:19;97849.50;;;16.64;46.27
66857;BME280;53766;50.280;19.160;2022-12-07T05:16:49;97854.59;;;16.65;46.18
66857;BME280;53766;50.280;19.160;2022-12-07T05:19:18;97852.97;;;16.64;46.20
66857;BME280;53766;50.280;19.160;2022-12-07T05:21:46;97846.00;;;16.63;46.11
66857;BME280;53766;50.280;19.160;2022-12-07T05:24:15;97848.47;;;16.65;46.18
66857;BME280;53766;50.280;19.160;2022-12-07T05:26:43;97852.16;;;16.64;46.24
66857;BME280;53766;50.280;19.160;2022-12-07T05:29:16;97852.16;;;16.64;46.11
66857;BME280;53766;50.280;19.160;2022-12-07T05:31:44;97847.06;;;16.62;46.10
66857;BME280;53766;50.280;19.160;2022-12-07T05:34:12;97857.50;;;16.64;46.14
66857;BME280;53766;50.280;19.160;2022-12-07T05:36:39;97855.84;;;16.63;46.25
66857;BME280;53766;50.280;19.160;2022-12-07T05:39:07;97847.06;;;16.62;46.08
66857;BME280;53766;50.280;19.160;2022-12-07T05:41:35;97856.66;;;16.63;46.11
66857;BME280;53766;50.280;19.160;2022-12-07T05:44:21;97848.91;;;16.62;46.05
66857;BME280;53766;50.280;19.160;2022-12-07T05:46:48;97849.72;;;16.62;46.04
66857;BME280;53766;50.280;19.160;2022-12-07T05:49:16;97840.31;;;16.60;46.10
66857;BME280;53766;50.280;19.160;2022-12-07T05:51:43;97841.94;;;16.61;46.09
66857;BME280;53766;50.280;19.160;2022-12-07T05:54:11;97843.59;;;16.62;46.15
66857;BME280;53766;50.280;19.160;2022-12-07T05:56:39;97844.59;;;16.61;46.04
66857;BME280;53766;50.280;19.160;2022-12-07T05:59:08;97849.91;;;16.61;46.04
66857;BME280;53766;50.280;19.160;2022-12-07T06:01:57;97859.72;;;16.60;46.18
66857;BME280;53766;50.280;19.160;2022-12-07T06:04:28;97844.81;;;16.59;46.11
66857;BME280;53766;50.280;19.160;2022-12-07T06:06:55;97850.13;;;16.59;46.16
66857;BME280;53766;50.280;19.160;2022-12-07T06:09:24;97850.94;;;16.60;46.34
66857;BME280;53766;50.280;19.160;2022-12-07T06:11:53;97850.13;;;16.59;46.07
66857;BME280;53766;50.280;19.160;2022-12-07T06:14:39;97854.41;;;16.60;46.06
66857;BME280;53766;50.280;19.160;2022-12-07T06:17:07;97849.28;;;16.59;46.07
66857;BME280;53766;50.280;19.160;2022-12-07T06:19:35;97856.66;;;16.57;46.09
66857;BME280;53766;50.280;19.160;2022-12-07T06:22:03;97853.00;;;16.58;45.88
66857;BME280;53766;50.280;19.160;2022-12-07T06:24:32;97859.13;;;16.58;46.12
66857;BME280;53766;50.280;19.160;2022-12-07T06:27:00;97860.97;;;16.58;46.12
66857;BME280;53766;50.280;19.160;2022-12-07T06:29:28;97862.81;;;16.57;46.10
66857;BME280;53766;50.280;19.160;2022-12-07T06:31:55;97868.94;;;16.58;46.14
66857;BME280;53766;50.280;19.160;2022-12-07T06:34:23;97872.59;;;16.57;46.02
66857;BME280;53766;50.280;19.160;2022-12-07T06:36:53;97871.59;;;16.58;46.06
66857;BME280;53766;50.280;19.160;2022-12-07T06:39:24;97872.59;;;16.57;45.90
66857;BME280;53766;50.280;19.160;2022-12-07T06:41:52;97877.94;;;16.57;45.97
66857;BME280;53766;50.280;19.160;2022-12-07T06:44:21;97871.00;;;16.56;46.09
66857;BME280;53766;50.280;19.160;2022-12-07T06:46:50;97882.22;;;16.58;46.03
66857;BME280;53766;50.280;19.160;2022-12-07T06:49:17;97874.44;;;16.56;46.14
66857;BME280;53766;50.280;19.160;2022-12-07T06:51:45;97882.63;;;16.55;46.18
66857;BME280;53766;50.280;19.160;2022-12-07T06:54:14;97879.97;;;16.55;46.03
66857;BME280;53766;50.280;19.160;2022-12-07T06:56:42;97874.66;;;16.55;45.99
66857;BME280;53766;50.280;19.160;2022-12-07T06:59:10;97882.03;;;16.53;46.08
66857;BME280;53766;50.280;19.160;2022-12-07T07:01:37;97882.63;;;16.55;45.81
66857;BME280;53766;50.280;19.160;2022-12-07T07:04:05;97886.31;;;16.54;46.03
66857;BME280;53766;50.280;19.160;2022-12-07T07:06:33;97879.38;;;16.53;46.01
66857;BME280;53766;50.280;19.160;2022-12-07T07:09:00;97883.84;;;16.52;45.94
66857;BME280;53766;50.280;19.160;2022-12-07T07:11:28;97884.47;;;16.54;46.01
66857;BME280;53766;50.280;19.160;2022-12-07T07:13:55;97876.72;;;16.53;45.85
66857;BME280;53766;50.280;19.160;2022-12-07T07:16:26;97878.53;;;16.52;45.92
66857;BME280;53766;50.280;19.160;2022-12-07T07:18:53;97882.03;;;16.53;45.81
66857;BME280;53766;50.280;19.160;2022-12-07T07:21:21;97885.72;;;16.52;45.82
66857;BME280;53766;50.280;19.160;2022-12-07T07:23:48;97889.41;;;16.51;45.97
66857;BME280;53766;50.280;19.160;2022-12-07T07:26:16;97878.78;;;16.51;45.76
66857;BME280;53766;50.280;19.160;2022-12-07T07:28:49;97884.09;;;16.51;45.78
66857;BME280;53766;50.280;19.160;2022-12-07T07:31:17;97884.09;;;16.51;45.79
66857;BME280;53766;50.280;19.160;2022-12-07T07:33:46;97889.41;;;16.51;45.75
66857;BME280;53766;50.280;19.160;2022-12-07T07:36:14;97890.22;;;16.51;45.65
66857;BME280;53766;50.280;19.160;2022-12-07T07:38:41;97883.25;;;16.50;45.61
66857;BME280;53766;50.280;19.160;2022-12-07T07:41:09;97894.72;;;16.51;45.62
66857;BME280;53766;50.280;19.160;2022-12-07T07:43:36;97898.38;;;16.50;45.58
66857;BME280;53766;50.280;19.160;2022-12-07T07:46:04;97893.06;;;16.50;45.50
66857;BME280;53766;50.280;19.160;2022-12-07T07:48:31;97892.25;;;16.49;45.60
66857;BME280;53766;50.280;19.160;2022-12-07T07:50:59;97885.09;;;16.50;45.49
66857;BME280;53766;50.280;19.160;2022-12-07T07:53:26;97891.44;;;16.49;45.63
66857;BME280;53766;50.280;19.160;2022-12-07T07:55:54;97895.09;;;16.48;45.51
66857;BME280;53766;50.280;19.160;2022-12-07T07:58:22;97897.56;;;16.49;45.49
66857;BME280;53766;50.280;19.160;2022-12-07T08:00:50;97900.44;;;16.48;45.54
66857;BME280;53766;50.280;19.160;2022-12-07T08:03:18;97892.44;;;16.48;45.48
66857;BME280;53766;50.280;19.160;2022-12-07T08:05:45;97895.09;;;16.48;45.52
66857;BME280;53766;50.280;19.160;2022-12-07T08:08:13;97903.09;;;16.48;45.45
66857;BME280;53766;50.280;19.160;2022-12-07T08:10:40;97901.47;;;16.47;45.36
66857;BME280;53766;50.280;19.160;2022-12-07T08:13:07;97902.47;;;16.45;45.41
66857;BME280;53766;50.280;19.160;2022-12-07T08:15:39;97904.13;;;16.47;45.31
66857;BME280;53766;50.280;19.160;2022-12-07T08:18:08;97903.28;;;16.46;45.49
66857;BME280;53766;50.280;19.160;2022-12-07T08:20:36;97902.47;;;16.45;45.42
66857;BME280;53766;50.280;19.160;2022-12-07T08:23:05;97903.09;;;16.48;45.34
66857;BME280;53766;50.280;19.160;2022-12-07T08:25:34;97909.44;;;16.47;45.33
66857;BME280;53766;50.280;19.160;2022-12-07T08:28:01;97910.44;;;16.45;45.28
66857;BME280;53766;50.280;19.160;2022-12-07T08:30:30;97906.97;;;16.45;45.30
66857;BME280;53766;50.280;19.160;2022-12-07T08:32:58;97913.09;;;16.45;45.24
66857;BME280;53766;50.280;19.160;2022-12-07T08:35:25;97915.75;;;16.45;45.27
66857;BME280;53766;50.280;19.160;2022-12-07T08:37:53;97913.09;;;16.45;45.22
66857;BME280;53766;50.280;19.160;2022-12-07T08:40:20;97920.47;;;16.43;45.28
66857;BME280;53766;50.280;19.160;2022-12-07T08:42:49;97924.53;;;16.46;45.23
66857;BME280;53766;50.280;19.160;2022-12-07T08:45:18;97913.91;;;16.46;45.33
66857;BME280;53766;50.280;19.160;2022-12-07T08:50:21;97915.75;;;16.45;45.09
66857;BME280;53766;50.280;19.160;2022-12-07T08:52:51;97930.69;;;16.47;45.14
66857;BME280;53766;50.280;19.160;2022-12-07T08:55:20;97926.38;;;16.45;45.00
66857;BME280;53766;50.280;19.160;2022-12-07T08:57:48;97927.19;;;16.46;45.14
66857;BME280;53766;50.280;19.160;2022-12-07T09:00:17;97927.44;;;16.44;45.24
66857;BME280;53766;50.280;19.160;2022-12-07T09:02:45;97931.09;;;16.43;45.07
66857;BME280;53766;50.280;19.160;2022-12-07T09:05:13;97929.03;;;16.45;45.04
66857;BME280;53766;50.280;19.160;2022-12-07T09:07:46;97929.03;;;16.45;45.21
66857;BME280;53766;50.280;19.160;2022-12-07T09:10:17;97929.03;;;16.45;45.10
66857;BME280;53766;50.280;19.160;2022-12-07T09:12:44;97923.72;;;16.45;45.06
66857;BME280;53766;50.280;19.160;2022-12-07T09:15:12;97932.75;;;16.44;45.23
66857;BME280;53766;50.280;19.160;2022-12-07T09:17:39;97929.47;;;16.42;45.33
66857;BME280;53766;50.280;19.160;2022-12-07T09:20:07;97927.00;;;16.41;45.36
66857;BME280;53766;50.280;19.160;2022-12-07T09:22:35;97920.88;;;16.40;45.36
66857;BME280;53766;50.280;19.160;2022-12-07T09:25:03;97925.16;;;16.41;45.50
66857;BME280;53766;50.280;19.160;2022-12-07T09:27:30;97913.91;;;16.39;45.57
66857;BME280;53766;50.280;19.160;2022-12-07T09:29:58;97914.75;;;16.40;45.72
66857;BME280;53766;50.280;19.160;2022-12-07T09:32:26;97904.94;;;16.40;45.57
66857;BME280;53766;50.280;19.160;2022-12-07T09:34:53;97900.44;;;16.41;45.57
66857;BME280;53766;50.280;19.160;2022-12-07T09:37:21;97904.94;;;16.40;45.79
66857;BME280;53766;50.280;19.160;2022-12-07T09:39:49;97898.81;;;16.40;45.77
66857;BME280;53766;50.280;19.160;2022-12-07T09:42:35;97898.56;;;16.41;45.72
66857;BME280;53766;50.280;19.160;2022-12-07T09:45:06;97897.97;;;16.39;45.64
66857;BME280;53766;50.280;19.160;2022-12-07T09:47:34;97894.31;;;16.40;45.71
66857;BME280;53766;50.280;19.160;2022-12-07T09:50:11;97895.91;;;16.41;45.71
66857;BME280;53766;50.280;19.160;2022-12-07T09:52:40;97883.66;;;16.40;45.83
66857;BME280;53766;50.280;19.160;2022-12-07T09:55:19;97890.59;;;16.41;45.61
66857;BME280;53766;50.280;19.160;2022-12-07T09:57:48;97891.63;;;16.40;45.74
66857;BME280;53766;50.280;19.160;2022-12-07T10:00:18;97886.31;;;16.40;45.77
66857;BME280;53766;50.280;19.160;2022-12-07T10:02:57;97878.34;;;16.40;45.73
66857;BME280;53766;50.280;19.160;2022-12-07T10:05:44;97876.69;;;16.39;45.66
66857;BME280;53766;50.280;19.160;2022-12-07T10:08:13;97873.03;;;16.40;45.78
66857;BME280;53766;50.280;19.160;2022-12-07T10:10:44;97866.91;;;16.40;45.84
66857;BME280;53766;50.280;19.160;2022-12-07T10:13:14;97857.09;;;16.40;45.83
66857;BME280;53766;50.280;19.160;2022-12-07T10:15:54;97852.59;;;16.41;45.93
66857;BME280;53766;50.280;19.160;2022-12-07T10:18:39;97851.78;;;16.40;45.81
66857;BME280;53766;50.280;19.160;2022-12-07T10:23:41;97847.06;;;16.42;45.83
66857;BME280;53766;50.280;19.160;2022-12-07T10:26:40;97845.41;;;16.41;45.81
66857;BME280;53766;50.280;19.160;2022-12-07T10:29:14;97847.06;;;16.42;45.72
66857;BME280;53766;50.280;19.160;2022-12-07T10:31:44;97835.63;;;16.42;45.74
66857;BME280;53766;50.280;19.160;2022-12-07T10:34:25;97826.81;;;16.41;45.77
66857;BME280;53766;50.280;19.160;2022-12-07T10:36:54;97840.72;;;16.43;45.63
66857;BME280;53766;50.280;19.160;2022-12-07T10:39:45;97827.66;;;16.42;45.93
66857;BME280;53766;50.280;19.160;2022-12-07T10:42:21;97822.13;;;16.43;45.87
66857;BME280;53766;50.280;19.160;2022-12-07T10:45:06;97830.09;;;16.43;45.99
66857;BME280;53766;50.280;19.160;2022-12-07T10:47:39;97833.38;;;16.45;46.12
66857;BME280;53766;50.280;19.160;2022-12-07T10:53:05;97830.50;;;16.47;46.45
66857;BME280;53766;50.280;19.160;2022-12-07T11:06:40;97826.00;;;16.48;46.82
66857;BME280;53766;50.280;19.160;2022-12-07T11:09:44;97826.81;;;16.48;47.20
66857;BME280;53766;50.280;19.160;2022-12-07T11:13:04;97817.03;;;16.49;47.13
66857;BME280;53766;50.280;19.160;2022-12-07T11:18:32;97822.34;;;16.49;46.82
66857;BME280;53766;50.280;19.160;2022-12-07T11:21:09;97810.06;;;16.48;46.74
66857;BME280;53766;50.280;19.160;2022-12-07T11:23:55;97812.09;;;16.45;46.76
66857;BME280;53766;50.280;19.160;2022-12-07T11:29:34;97804.75;;;16.48;46.57
66857;BME280;53766;50.280;19.160;2022-12-07T11:32:16;97796.97;;;16.46;46.60
66857;BME280;53766;50.280;19.160;2022-12-07T11:37:33;97796.16;;;16.45;46.54
66857;BME280;53766;50.280;19.160;2022-12-07T11:40:17;97785.53;;;16.45;46.47
66857;BME280;53766;50.280;19.160;2022-12-07T11:42:52;97787.16;;;16.47;46.53
66857;BME280;53766;50.280;19.160;2022-12-07T11:45:28;97779.59;;;16.43;46.47
66857;BME280;53766;50.280;19.160;2022-12-07T11:48:02;97780.44;;;16.44;46.34
66857;BME280;53766;50.280;19.160;2022-12-07T11:50:41;97776.94;;;16.43;46.21
66857;BME280;53766;50.280;19.160;2022-12-07T11:53:28;97772.22;;;16.45;46.24
66857;BME280;53766;50.280;19.160;2022-12-07T11:56:11;97773.28;;;16.44;45.99
66857;BME280;53766;50.280;19.160;2022-12-07T12:06:53;97788.41;;;16.44;46.19
66857;BME280;53766;50.280;19.160;2022-12-07T12:09:29;97772.22;;;16.45;45.66
66857;BME280;53766;50.280;19.160;2022-12-07T12:15:49;97786.94;;;16.48;45.80
66857;BME280;53766;50.280;19.160;2022-12-07T12:21:11;97791.25;;;16.49;45.86
66857;BME280;53766;50.280;19.160;2022-12-07T12:23:49;97783.47;;;16.48;45.74
66857;BME280;53766;50.280;19.160;2022-12-07T12:26:24;97779.81;;;16.49;45.75
66857;BME280;53766;50.280;19.160;2022-12-07T12:29:05;97776.09;;;16.50;45.91
66857;BME280;53766;50.280;19.160;2022-12-07T12:31:39;97783.28;;;16.49;45.83
66857;BME280;53766;50.280;19.160;2022-12-07T12:34:31;97772.03;;;16.47;45.78
66857;BME280;53766;50.280;19.160;2022-12-07T12:36:59;97770.38;;;16.46;45.70
66857;BME280;53766;50.280;19.160;2022-12-07T12:39:27;97771.22;;;16.47;46.01
66857;BME280;53766;50.280;19.160;2022-12-07T12:41:56;97765.06;;;16.46;45.92
66857;BME280;53766;50.280;19.160;2022-12-07T12:47:01;97767.94;;;16.44;45.83
66857;BME280;53766;50.280;19.160;2022-12-07T12:49:33;97767.34;;;16.42;45.87
66857;BME280;53766;50.280;19.160;2022-12-07T12:55:11;97770.19;;;16.48;45.85
66857;BME280;53766;50.280;19.160;2022-12-07T12:57:39;97756.91;;;16.48;45.83
66857;BME280;53766;50.280;19.160;2022-12-07T13:00:23;97747.91;;;16.49;45.81
66857;BME280;53766;50.280;19.160;2022-12-07T13:02:54;97751.19;;;16.51;45.75
66857;BME280;53766;50.280;19.160;2022-12-07T13:05:27;97752.81;;;16.52;45.87
66857;BME280;53766;50.280;19.160;2022-12-07T13:10:43;97758.72;;;16.54;45.85
66857;BME280;53766;50.280;19.160;2022-12-07T13:15:39;97754.84;;;16.56;45.72
66857;BME280;53766;50.280;19.160;2022-12-07T13:21:02;97765.88;;;16.60;45.75
66857;BME280;53766;50.280;19.160;2022-12-07T13:31:51;97761.34;;;16.67;45.72
66857;BME280;53766;50.280;19.160;2022-12-07T13:34:38;97762.56;;;16.71;45.67
66857;BME280;53766;50.280;19.160;2022-12-07T13:37:15;97759.72;;;16.73;45.77
66857;BME280;53766;50.280;19.160;2022-12-07T13:39:49;97761.31;;;16.74;45.70
66857;BME280;53766;50.280;19.160;2022-12-07T13:42:34;97765.00;;;16.79;45.65
66857;BME280;53766;50.280;19.160;2022-12-07T13:45:23;97765.00;;;16.79;45.60
66857;BME280;53766;50.280;19.160;2022-12-07T13:48:36;97765.63;;;16.81;45.66
66857;BME280;53766;50.280;19.160;2022-12-07T13:51:17;97765.22;;;16.84;45.60
66857;BME280;53766;50.280;19.160;2022-12-07T13:53:54;97768.28;;;16.88;45.60
66857;BME280;53766;50.280;19.160;2022-12-07T13:56:27;97773.59;;;16.88;45.69
66857;BME280;53766;50.280;19.160;2022-12-07T13:58:56;97776.63;;;16.92;45.66
66857;BME280;53766;50.280;19.160;2022-12-07T14:01:24;97774.38;;;16.95;45.55
66857;BME280;53766;50.280;19.160;2022-12-07T14:03:52;97779.25;;;16.98;45.61
66857;BME280;53766;50.280;19.160;2022-12-07T14:06:25;97774.34;;;17.02;45.57
66857;BME280;53766;50.280;19.160;2022-12-07T14:09:18;97771.06;;;17.06;45.45
66857;BME280;53766;50.280;19.160;2022-12-07T14:11:47;97771.88;;;17.07;45.37
66857;BME280;53766;50.280;19.160;2022-12-07T14:14:36;97775.72;;;17.11;45.56
66857;BME280;53766;50.280;19.160;2022-12-07T14:17:19;97783.91;;;17.16;45.47
66857;BME280;53766;50.280;19.160;2022-12-07T14:22:30;97784.09;;;17.21;45.26
66857;BME280;53766;50.280;19.160;2022-12-07T14:25:26;97788.59;;;17.21;45.30
66857;BME280;53766;50.280;19.160;2022-12-07T14:27:59;97780.41;;;17.22;45.44
66857;BME280;53766;50.280;19.160;2022-12-07T14:30:32;97787.34;;;17.23;45.29
66857;BME280;53766;50.280;19.160;2022-12-07T14:33:02;97803.28;;;17.30;45.26
66857;BME280;53766;50.280;19.160;2022-12-07T14:35:31;97795.50;;;17.28;45.38
66857;BME280;53766;50.280;19.160;2022-12-07T14:37:59;97799.00;;;17.29;45.38
66857;BME280;53766;50.280;19.160;2022-12-07T14:40:28;97804.09;;;17.31;45.29